Independence, KS

12:21 AM CST on February 22, 2017 (GMT -0600)
Independence Municipal

Weather History for KIDP - February, 2013

Change the Weather History Date:

Saturday, February 16, 2013

  Actual Average (KCFV) Record (KCFV)
Temperature  
Mean Temperature 30 °F -  
Max Temperature 39 °F 49 °F 70 °F (2017)
Min Temperature 21 °F 30 °F 9 °F (2007)
Degree Days  
Heating Degree Days 35    
Moisture  
Dew Point 18 °F    
Average Humidity 62    
Maximum Humidity 86    
Minimum Humidity 36    
Precipitation  
Precipitation 0.00 in - - ()
Sea Level Pressure  
Sea Level Pressure 30.24 in    
Wind  
Wind Speed 9 mph (SW)    
Max Wind Speed 17 mph    
Max Gust Speed 22 mph    
Visibility 10 miles    
Events Snow    
Averages and records for this station are not official NWS values.
T = Trace of Precipitation, MM = Missing Value Source: NWS Daily Summary

Daily Weather History Graph

Daily Weather History Graph

Search for Another Location

Airport or City:

Trip Planner

Search our weather history database for the weather conditions in past years. The results will help you decide how hot, cold, wet, or windy it might be!

Date:

Astronomy

Feb. 16, 2013 Rise Set
Actual Time 7:10 AM CST 6:04 PM CST
Civil Twilight 6:43 AM CST 6:30 PM CST
Nautical Twilight 6:13 AM CST 7:01 PM CST
Astronomical Twilight 5:43 AM CST 7:31 PM CST
Moon 10:34 AM CST (2/16) No Moon Set
Length of Visible Light 11h 47m
Length of Day
10h 53m
Waxing Crescent, 39% of the Moon is Illuminated
Feb 16
Waxing Crescent
Feb 17
First Quarter
Feb 25
Full
Mar 4
Last Quarter
Mar 11
New

Hourly Weather History & Observations

Time (CST) Temp. Windchill Dew Point Humidity Pressure Visibility Wind Dir Wind Speed Gust Speed Precip Events Conditions
12:15 AM 30.2 °F 21.9 °F 26.6 °F 86% 30.34 in 5.0 mi NNW 9.2 mph - N/A Snow Light Snow
12:35 AM 30.2 °F 21.9 °F 24.8 °F 80% 30.35 in 10.0 mi NW 9.2 mph - N/A   Mostly Cloudy
12:55 AM 30.2 °F 22.6 °F 23.0 °F 75% 30.34 in 10.0 mi NW 8.1 mph - N/A   Clear
1:15 AM 30.2 °F 22.6 °F 23.0 °F 75% 30.34 in 10.0 mi NW 8.1 mph - N/A   Clear
1:35 AM 30.2 °F 18.5 °F 21.2 °F 69% 30.34 in 10.0 mi NNW 17.3 mph 21.9 mph N/A   Clear
1:55 AM 28.4 °F 18.0 °F 19.4 °F 69% 30.34 in 10.0 mi NW 12.7 mph - N/A   Clear
2:15 AM 28.4 °F 18.5 °F 19.4 °F 69% 30.34 in 10.0 mi NW 11.5 mph - N/A   Clear
2:35 AM 28.4 °F 18.0 °F 19.4 °F 69% 30.34 in 10.0 mi NW 12.7 mph - N/A   Clear
2:55 AM 26.6 °F 16.2 °F 19.4 °F 74% 30.34 in 10.0 mi NW 11.5 mph - N/A   Clear
3:15 AM 26.6 °F 16.8 °F 19.4 °F 74% 30.34 in 10.0 mi NW 10.4 mph 17.3 mph N/A   Clear
3:35 AM 26.6 °F 16.8 °F 19.4 °F 74% 30.34 in 10.0 mi NW 10.4 mph - N/A   Clear
3:55 AM 24.8 °F 14.6 °F 19.4 °F 80% 30.34 in 10.0 mi WNW 10.4 mph - N/A   Clear
4:15 AM 24.8 °F 14.6 °F 19.4 °F 80% 30.34 in 10.0 mi WNW 10.4 mph - N/A   Clear
4:35 AM 23.0 °F 11.7 °F 19.4 °F 86% 30.35 in 10.0 mi WNW 11.5 mph - N/A   Clear
4:55 AM 23.0 °F 12.4 °F 17.6 °F 80% 30.35 in 10.0 mi WNW 10.4 mph - N/A   Clear
5:15 AM 23.0 °F 13.1 °F 17.6 °F 80% 30.35 in 10.0 mi NW 9.2 mph - N/A   Clear
5:35 AM 23.0 °F 13.9 °F 17.6 °F 80% 30.34 in 10.0 mi NW 8.1 mph - N/A   Clear
5:55 AM 23.0 °F 14.7 °F 17.6 °F 80% 30.34 in 10.0 mi NW 6.9 mph - N/A   Clear
6:15 AM 23.0 °F 14.7 °F 17.6 °F 80% 30.35 in 10.0 mi NW 6.9 mph - N/A   Clear
6:35 AM 21.2 °F 14.9 °F 17.6 °F 86% 30.35 in 10.0 mi NNE 4.6 mph - N/A   Clear
6:55 AM 21.2 °F 13.6 °F 17.6 °F 86% 30.34 in 10.0 mi NNW 5.8 mph - N/A   Clear
7:15 AM 21.2 °F 12.6 °F 17.6 °F 86% 30.35 in 10.0 mi NNW 6.9 mph - N/A   Clear
7:35 AM 21.2 °F 13.6 °F 17.6 °F 86% 30.36 in 10.0 mi NNW 5.8 mph - N/A   Clear
7:55 AM 23.0 °F 17.0 °F 17.6 °F 80% 30.35 in 10.0 mi NNW 4.6 mph - N/A   Clear
8:15 AM 23.0 °F 13.9 °F 17.6 °F 80% 30.36 in 10.0 mi NW 8.1 mph - N/A   Clear
8:35 AM 23.0 °F 17.0 °F 19.4 °F 86% 30.36 in 10.0 mi NW 4.6 mph - N/A   Clear
8:55 AM 26.6 °F 19.1 °F 19.4 °F 74% 30.37 in 10.0 mi NW 6.9 mph - N/A   Clear
9:15 AM 26.6 °F 22.6 °F 19.4 °F 74% 30.37 in 10.0 mi WNW 3.5 mph - N/A   Clear
9:35 AM 26.6 °F 19.1 °F 21.2 °F 80% 30.37 in 10.0 mi West 6.9 mph - N/A   Clear
12:15 PM 33.8 °F 27.0 °F 15.8 °F 48% 30.29 in 10.0 mi South 8.1 mph - N/A   Overcast
12:35 PM 33.8 °F 27.0 °F 15.8 °F 48% 30.27 in 10.0 mi SSW 8.1 mph - N/A   Overcast
12:55 PM 33.8 °F 27.0 °F 15.8 °F 48% 30.27 in 10.0 mi SW 8.1 mph - N/A   Overcast
1:15 PM 35.6 °F 28.0 °F 15.8 °F 44% 30.25 in 10.0 mi SSW 10.4 mph - N/A   Overcast
1:35 PM 35.6 °F 27.5 °F 14.0 °F 41% 30.24 in 10.0 mi SW 11.5 mph - N/A   Overcast
1:55 PM 35.6 °F 29.2 °F 15.8 °F 44% 30.22 in 10.0 mi SSW 8.1 mph - N/A   Overcast
2:15 PM 35.6 °F 27.5 °F 14.0 °F 41% 30.21 in 10.0 mi SSW 11.5 mph - N/A   Overcast
2:35 PM 37.4 °F 30.8 °F 14.0 °F 38% 30.19 in 10.0 mi South 9.2 mph - N/A   Overcast
2:55 PM 37.4 °F 29.3 °F 14.0 °F 38% 30.17 in 10.0 mi South 12.7 mph - N/A   Overcast
3:15 PM 37.4 °F 28.9 °F 14.0 °F 38% 30.17 in 10.0 mi South 13.8 mph - N/A   Overcast
3:35 PM 39.2 °F 31.6 °F 14.0 °F 36% 30.16 in 10.0 mi South 12.7 mph - N/A   Overcast
3:55 PM 39.2 °F 30.8 °F 14.0 °F 36% 30.17 in 10.0 mi South 15.0 mph - N/A   Mostly Cloudy
4:15 PM 39.2 °F 31.6 °F 14.0 °F 36% 30.17 in 10.0 mi SSW 12.7 mph - N/A   Clear
4:35 PM 37.4 °F 29.3 °F 14.0 °F 38% 30.17 in 10.0 mi South 12.7 mph - N/A   Mostly Cloudy
4:55 PM 39.2 °F 31.2 °F 14.0 °F 36% 30.16 in 10.0 mi South 13.8 mph - N/A   Scattered Clouds
5:15 PM 37.4 °F 30.3 °F 14.0 °F 38% 30.15 in 10.0 mi South 10.4 mph - N/A   Clear
5:35 PM 37.4 °F 30.3 °F 17.6 °F 45% 30.15 in 10.0 mi South 10.4 mph - N/A   Clear
5:55 PM 35.6 °F 28.6 °F 17.6 °F 48% 30.14 in 10.0 mi SSE 9.2 mph - N/A   Clear
6:15 PM 33.8 °F 26.4 °F 17.6 °F 52% 30.13 in 10.0 mi SSE 9.2 mph - N/A   Clear
6:35 PM 33.8 °F 25.8 °F 17.6 °F 52% 30.13 in 10.0 mi SSE 10.4 mph - N/A   Clear
6:55 PM 33.8 °F 26.4 °F 17.6 °F 52% 30.12 in 10.0 mi SSE 9.2 mph - N/A   Scattered Clouds
7:15 PM 33.8 °F 26.4 °F 15.8 °F 48% 30.12 in 10.0 mi SE 9.2 mph - N/A   Mostly Cloudy
7:35 PM 33.8 °F 26.4 °F 15.8 °F 48% 30.12 in 10.0 mi SE 9.2 mph - N/A   Scattered Clouds
7:55 PM 32.0 °F 24.2 °F 17.6 °F 55% 30.11 in 10.0 mi SSE 9.2 mph - N/A   Clear
8:15 PM 32.0 °F 23.6 °F 17.6 °F 55% 30.11 in 10.0 mi SSE 10.4 mph - N/A   Clear
8:35 PM 32.0 °F 24.2 °F 17.6 °F 55% 30.11 in 10.0 mi SE 9.2 mph - N/A   Clear
8:55 PM 32.0 °F 24.8 °F 17.6 °F 55% 30.10 in 10.0 mi SSE 8.1 mph - N/A   Clear
9:15 PM 32.0 °F 25.6 °F 17.6 °F 55% 30.11 in 10.0 mi SE 6.9 mph - N/A   Clear
9:35 PM 32.0 °F 25.6 °F 19.4 °F 60% 30.10 in 10.0 mi SE 6.9 mph - N/A   Clear
9:55 PM 32.0 °F 24.8 °F 17.6 °F 55% 30.10 in 10.0 mi SE 8.1 mph - N/A   Clear
10:15 PM 32.0 °F 25.6 °F 17.6 °F 55% 30.10 in 10.0 mi SE 6.9 mph - N/A   Clear
10:35 PM 30.2 °F 25.4 °F 17.6 °F 60% 30.09 in 10.0 mi SE 4.6 mph - N/A   Clear
10:55 PM 30.2 °F 25.4 °F 17.6 °F 60% 30.09 in 10.0 mi SE 4.6 mph - N/A   Clear
11:15 PM 30.2 °F 25.4 °F 19.4 °F 64% 30.08 in 10.0 mi ESE 4.6 mph - N/A   Clear
11:35 PM 30.2 °F 24.3 °F 19.4 °F 64% 30.07 in 10.0 mi ESE 5.8 mph - N/A   Clear
11:55 PM 30.2 °F 24.3 °F 19.4 °F 64% 30.07 in 10.0 mi ESE 5.8 mph - N/A   Clear